Time;durP1;ratioP1;P1;durP2;ratioP2;P2;SDS_P1;SDS_P2;PMS_P1;PMS_P2;Temp;Humidity;BMP_temperature;BMP_pressure;BME280_temperature;BME280_humidity;BME280_pressure;Samples;Min_cycle;Max_cycle;Signal;HPM_P1;HPM_P2
2022/05/31 00:02:24;;;;;;;13.60;9.68;;;;;;;17.44;94.79;99758.19;1724339;82;20981;-75
2022/05/31 00:04:50;;;;;;;10.78;9.75;;;;;;;17.46;94.97;99757.33;1687535;84;21027;-76
2022/05/31 00:07:17;;;;;;;13.58;10.72;;;;;;;17.40;94.12;99757.98;1724812;83;21021;-74
2022/05/31 00:09:45;;;;;;;9.88;8.95;;;;;;;17.39;94.46;99765.88;1724252;81;21043;-76
2022/05/31 00:12:12;;;;;;;13.05;9.70;;;;;;;17.41;94.31;99761.48;1724721;83;21156;-79
2022/05/31 00:14:40;;;;;;;12.63;10.75;;;;;;;17.40;93.78;99765.32;1723897;83;20924;-77
2022/05/31 00:17:07;;;;;;;9.08;8.28;;;;;;;17.44;93.95;99764.44;1718338;83;21003;-76
2022/05/31 00:19:34;;;;;;;10.65;9.55;;;;;;;17.48;94.12;99773.36;1724296;81;21584;-76
2022/05/31 00:22:08;;;;;;;10.43;9.30;;;;;;;17.48;94.09;99775.53;1685407;83;21485;-77
2022/05/31 00:24:35;;;;;;;11.60;9.70;;;;;;;17.43;94.18;99769.62;1691491;83;21081;-77
2022/05/31 00:27:04;;;;;;;11.28;8.70;;;;;;;17.42;94.69;99764.46;1693419;84;21485;-76
2022/05/31 00:29:31;;;;;;;11.15;10.05;;;;;;;17.44;95.20;99759.55;1653933;84;21031;-74
2022/05/31 00:32:00;;;;;;;10.28;9.28;;;;;;;17.44;94.85;99756.28;1692811;83;21094;-75
2022/05/31 00:34:26;;;;;;;11.00;9.33;;;;;;;17.42;94.26;99758.47;1693325;84;21624;-76
2022/05/31 00:36:53;;;;;;;15.48;10.23;;;;;;;17.44;93.95;99764.44;1693166;84;22137;-75
2022/05/31 00:39:20;;;;;;;9.03;7.97;;;;;;;17.46;93.62;99770.14;1692490;83;21083;-75
2022/05/31 00:42:07;;;;;;;9.30;8.55;;;;;;;17.26;91.21;99770.67;1692709;84;20975;-77
2022/05/31 00:44:35;;;;;;;10.95;9.90;;;;;;;17.09;91.25;99773.59;1640527;86;20956;-73
2022/05/31 00:47:19;;;;;;;11.15;8.35;;;;;;;17.02;91.63;99765.00;1665280;86;21050;-74
2022/05/31 00:50:06;;;;;;;8.93;8.10;;;;;;;16.86;90.95;99757.57;1691201;84;20960;-76
2022/05/31 00:52:41;;;;;;;11.55;9.35;;;;;;;16.71;90.94;99760.45;1690273;83;21600;-75
2022/05/31 00:55:17;;;;;;;9.95;9.05;;;;;;;16.57;91.21;99762.47;1698400;83;21576;-74
2022/05/31 00:58:11;;;;;;;10.78;9.68;;;;;;;16.57;92.04;99764.37;1722302;83;21130;-73
2022/05/31 01:00:38;;;;;;;11.95;8.63;;;;;;;16.59;92.60;99762.23;1688369;83;21102;-72
2022/05/31 01:03:05;;;;;;;9.90;8.90;;;;;;;16.61;93.07;99765.98;1687777;85;21162;-73
2022/05/31 01:05:32;;;;;;;10.20;9.10;;;;;;;16.63;93.28;99758.38;1687601;85;20989;-73
2022/05/31 01:08:00;;;;;;;11.63;9.18;;;;;;;16.66;93.69;99753.17;1687773;84;21081;-74
2022/05/31 01:10:28;;;;;;;26.50;10.90;;;;;;;16.74;94.08;99755.24;1690011;83;21051;-73
2022/05/31 01:13:17;;;;;;;9.13;8.35;;;;;;;16.74;93.59;99763.97;1689442;83;21116;-74
2022/05/31 01:15:50;;;;;;;9.20;8.30;;;;;;;16.66;92.98;99764.03;1720820;83;22203;-75
2022/05/31 01:18:35;;;;;;;9.28;8.43;;;;;;;16.58;92.78;99776.89;1716784;83;21508;-75
2022/05/31 01:21:20;;;;;;;11.48;8.98;;;;;;;16.53;93.86;99771.48;1693034;83;20978;-74
2022/05/31 01:24:00;;;;;;;9.43;8.53;;;;;;;16.50;95.10;99771.48;1648843;86;20988;-75
2022/05/31 01:26:35;;;;;;;14.68;8.98;;;;;;;16.50;96.13;99771.48;1655775;86;21147;-75
2022/05/31 01:29:07;;;;;;;9.35;8.33;;;;;;;16.50;96.84;99772.03;1655790;86;21049;-74
2022/05/31 01:31:46;;;;;;;;;;;;;;;16.50;97.21;99771.48;1707146;82;20929;-74
2022/05/31 01:34:45;;;;;;;8.18;7.35;;;;;;;16.49;97.44;99771.80;1733756;82;20115;-72
2022/05/31 01:37:11;;;;;;;13.50;8.88;;;;;;;16.45;97.50;99772.11;1719971;82;21056;-73
2022/05/31 01:39:51;;;;;;;9.93;8.30;;;;;;;16.41;97.45;99775.92;1729889;82;21152;-73
2022/05/31 01:42:43;;;;;;;8.65;7.85;;;;;;;16.41;97.50;99779.19;1723796;83;21146;-73
2022/05/31 01:45:17;;;;;;;11.97;9.00;;;;;;;16.38;97.49;99787.37;1717364;83;20948;-73
2022/05/31 01:47:45;;;;;;;11.28;7.83;;;;;;;16.38;97.66;99797.41;1694832;83;21048;-74
2022/05/31 01:50:16;;;;;;;8.93;8.10;;;;;;;16.38;97.66;99796.05;1728368;81;21049;-72
2022/05/31 01:52:43;;;;;;;10.88;9.18;;;;;;;16.38;97.59;99797.41;1736135;81;21013;-72
2022/05/31 01:55:10;;;;;;;12.25;7.53;;;;;;;16.41;97.59;99804.97;1724526;83;21962;-72
2022/05/31 01:57:36;;;;;;;7.50;6.67;;;;;;;16.43;97.38;99802.80;1725191;83;21670;-73
2022/05/31 02:00:09;;;;;;;9.68;8.25;;;;;;;16.39;97.16;99803.11;1706255;81;21007;-72
2022/05/31 02:02:43;;;;;;;7.35;6.65;;;;;;;16.35;97.31;99801.52;1725237;83;21086;-74
2022/05/31 02:05:10;;;;;;;11.38;10.18;;;;;;;16.34;97.62;99804.51;1725149;83;21605;-75
2022/05/31 02:07:37;;;;;;;12.60;8.08;;;;;;;16.24;98.47;99807.30;1724788;81;21106;-75
2022/05/31 02:10:06;;;;;;;9.25;8.20;;;;;;;16.14;98.86;99816.34;1704784;82;21049;-76
2022/05/31 02:12:36;;;;;;;11.22;8.73;;;;;;;16.13;99.38;99811.45;1714268;82;21549;-75
2022/05/31 02:15:20;;;;;;;10.68;9.53;;;;;;;16.10;100.00;99808.50;1723123;82;21138;-75
2022/05/31 02:18:07;;;;;;;11.40;9.45;;;;;;;16.04;100.00;99810.98;1749793;81;21031;-74
2022/05/31 02:20:39;;;;;;;8.33;7.58;;;;;;;15.98;100.00;99812.10;1718833;81;21335;-73
2022/05/31 02:23:06;;;;;;;9.18;7.60;;;;;;;15.96;100.00;99805.63;1715916;81;21070;-74
2022/05/31 02:25:33;;;;;;;9.73;8.83;;;;;;;15.96;100.00;99807.52;1703540;83;21003;-73
2022/05/31 02:28:00;;;;;;;8.65;7.72;;;;;;;15.96;100.00;99809.70;1717610;83;21020;-73
2022/05/31 02:30:27;;;;;;;10.00;9.00;;;;;;;15.97;100.00;99805.87;1675496;85;21060;-74
2022/05/31 02:32:53;;;;;;;10.23;8.28;;;;;;;15.93;100.00;99805.36;1698327;82;21148;-74
2022/05/31 02:35:20;;;;;;;9.08;8.18;;;;;;;15.90;100.00;99812.17;1690298;84;20961;-74
2022/05/31 02:37:46;;;;;;;10.68;8.48;;;;;;;15.86;100.00;99804.34;1682321;85;21023;-75
2022/05/31 02:40:13;;;;;;;12.80;8.95;;;;;;;15.87;100.00;99809.22;1689368;83;21474;-76
2022/05/31 02:42:42;;;;;;;9.35;8.23;;;;;;;15.82;100.00;99801.93;1691858;83;21044;-76
2022/05/31 02:45:11;;;;;;;8.78;8.03;;;;;;;15.80;100.00;99799.22;1704304;84;21211;-76
2022/05/31 02:47:40;;;;;;;10.80;8.18;;;;;;;15.78;100.00;99806.27;1704975;84;21300;-76
2022/05/31 02:50:08;;;;;;;10.48;9.38;;;;;;;15.80;100.00;99812.78;1704819;84;21043;-75
2022/05/31 02:52:34;;;;;;;9.75;8.78;;;;;;;15.82;100.00;99809.25;1705174;82;20937;-77
2022/05/31 02:55:03;;;;;;;8.65;7.85;;;;;;;15.84;100.00;99805.69;1703395;82;21570;-74
2022/05/31 02:57:29;;;;;;;10.23;9.23;;;;;;;15.81;100.00;99811.69;1698313;83;22145;-76
2022/05/31 03:00:03;;;;;;;9.87;8.83;;;;;;;15.83;100.00;99804.06;1694823;84;20967;-75
2022/05/31 03:02:48;;;;;;;10.28;9.38;;;;;;;15.84;100.00;99790.78;1692419;83;21071;-76
2022/05/31 03:05:17;;;;;;;9.73;8.88;;;;;;;15.85;100.00;99798.64;1720434;83;21059;-76
2022/05/31 03:07:44;;;;;;;10.25;9.08;;;;;;;15.82;100.00;99791.08;1724273;83;21032;-77
2022/05/31 03:10:13;;;;;;;10.38;9.38;;;;;;;15.85;100.00;99797.28;1724710;83;21894;-76
2022/05/31 03:12:39;;;;;;;9.90;8.78;;;;;;;15.88;100.00;99799.97;1719404;81;21006;-76
2022/05/31 03:15:09;;;;;;;9.90;8.90;;;;;;;15.93;100.00;99803.45;1724677;83;21516;-74
2022/05/31 03:17:45;;;;;;;13.28;8.93;;;;;;;16.01;100.00;99800.70;1725309;83;20983;-76
2022/05/31 03:20:22;;;;;;;10.10;9.10;;;;;;;16.11;100.00;99806.06;1698925;84;21052;-75
2022/05/31 03:22:57;;;;;;;9.35;8.50;;;;;;;16.23;100.00;99820.06;1697948;82;21011;-76
2022/05/31 03:25:26;;;;;;;10.43;8.98;;;;;;;16.30;100.00;99824.63;1710356;83;20944;-76
2022/05/31 03:27:56;;;;;;;8.93;7.47;;;;;;;16.37;100.00;99814.23;1710543;83;21094;-76
2022/05/31 03:30:23;;;;;;;9.40;8.50;;;;;;;16.46;100.00;99819.31;1702920;83;21040;-75
2022/05/31 03:32:50;;;;;;;9.85;8.95;;;;;;;16.55;100.00;99823.58;1697703;82;21114;-74
2022/05/31 03:35:17;;;;;;;9.83;8.83;;;;;;;16.61;100.00;99825.19;1708848;83;21272;-75
2022/05/31 03:37:46;;;;;;;12.33;9.98;;;;;;;16.67;100.00;99828.13;1709712;83;21056;-76
2022/05/31 03:43:19;;;;;;;9.95;9.05;;;;;;;16.80;100.00;99833.42;1709151;82;21494;-75
2022/05/31 03:45:47;;;;;;;10.00;9.20;;;;;;;16.81;100.00;99833.14;1706127;83;21509;-77
2022/05/31 03:48:33;;;;;;;10.40;9.20;;;;;;;16.81;100.00;99835.86;1710595;83;21385;-78
2022/05/31 03:51:04;;;;;;;12.73;9.73;;;;;;;16.85;100.00;99831.47;1695561;84;20980;-77
2022/05/31 03:53:31;;;;;;;12.10;9.38;;;;;;;16.87;100.00;99831.19;1688378;83;21327;-78
2022/05/31 03:56:08;;;;;;;12.28;9.85;;;;;;;16.89;100.00;99839.84;1689480;84;20992;-77
2022/05/31 03:58:36;;;;;;;12.03;8.95;;;;;;;16.93;100.00;99841.70;1663168;84;21072;-82
2022/05/31 04:01:13;;;;;;;15.23;8.98;;;;;;;16.96;99.99;99833.53;1658853;86;21290;-79
2022/05/31 04:03:41;;;;;;;9.70;8.35;;;;;;;16.97;99.15;99833.26;1685492;83;21016;-78
2022/05/31 04:06:10;;;;;;;10.20;9.33;;;;;;;16.98;98.58;99839.47;1687184;84;21111;-80
2022/05/31 04:08:37;;;;;;;11.00;9.20;;;;;;;17.00;98.57;99834.58;1664091;84;21000;-81
2022/05/31 04:11:05;;;;;;;17.02;10.20;;;;;;;17.06;98.18;99838.86;1708366;83;21056;-75
2022/05/31 04:13:31;;;;;;;11.35;10.20;;;;;;;17.10;97.77;99843.98;1693501;83;21130;-72
2022/05/31 04:16:11;;;;;;;10.03;9.10;;;;;;;17.13;97.26;99833.87;1664363;84;21084;-75
2022/05/31 04:18:44;;;;;;;9.85;8.20;;;;;;;17.18;96.70;99840.61;1690170;84;21485;-76
2022/05/31 04:21:16;;;;;;;10.82;9.70;;;;;;;17.18;95.60;99843.33;1689918;84;21072;-76
2022/05/31 04:24:01;;;;;;;9.45;8.55;;;;;;;17.18;95.62;99851.48;1684499;83;21521;-78
2022/05/31 04:26:47;;;;;;;12.63;8.30;;;;;;;17.22;95.21;99846.27;1680376;85;21889;-77
2022/05/31 04:29:34;;;;;;;8.85;8.15;;;;;;;17.27;94.09;99848.39;1683129;85;21094;-76
2022/05/31 04:32:19;;;;;;;9.80;8.90;;;;;;;17.31;93.51;99852.72;1680339;82;20984;-76
2022/05/31 04:35:06;;;;;;;10.32;9.43;;;;;;;17.37;93.12;99855.06;1675294;85;20961;-78
2022/05/31 04:37:33;;;;;;;8.50;7.78;;;;;;;17.40;92.58;99854.51;1675194;85;20997;-77
2022/05/31 04:40:09;;;;;;;9.50;8.58;;;;;;;17.38;92.35;99855.33;1675228;85;21361;-76
2022/05/31 04:42:42;;;;;;;9.10;8.20;;;;;;;17.37;92.14;99863.77;1626476;82;20964;-76
2022/05/31 04:45:11;;;;;;;14.15;8.80;;;;;;;17.34;92.10;99874.69;1734514;82;21027;-77
2022/05/31 04:47:39;;;;;;;10.60;9.58;;;;;;;17.28;92.24;99875.84;1755050;81;21090;-77
2022/05/31 04:50:08;;;;;;;11.63;9.30;;;;;;;17.23;92.34;99870.45;1736451;81;21195;-76
2022/05/31 04:52:37;;;;;;;9.00;8.25;;;;;;;17.22;92.74;99878.34;1696261;83;21959;-76
2022/05/31 04:55:04;;;;;;;9.68;8.68;;;;;;;17.23;92.42;99878.61;1723575;83;20992;-76
2022/05/31 04:57:33;;;;;;;9.00;8.18;;;;;;;17.22;92.33;99882.42;1685339;83;21000;-75
2022/05/31 04:59:59;;;;;;;11.93;9.05;;;;;;;17.24;91.97;99884.86;1723649;82;21485;-77
2022/05/31 05:02:26;;;;;;;9.58;8.70;;;;;;;17.28;92.02;99891.34;1703512;82;21522;-73
2022/05/31 05:04:54;;;;;;;9.83;8.58;;;;;;;17.33;91.91;99889.92;1703279;84;21122;-76
2022/05/31 05:07:30;;;;;;;9.23;8.28;;;;;;;17.40;91.42;99893.94;1675028;85;21027;-75
2022/05/31 05:09:57;;;;;;;7.45;6.85;;;;;;;17.33;90.54;99900.80;1684806;84;21075;-78
2022/05/31 05:12:27;;;;;;;8.03;7.33;;;;;;;17.33;90.78;99896.72;1690177;83;21001;-79
2022/05/31 05:14:56;;;;;;;8.83;8.03;;;;;;;17.37;90.69;99899.11;1688646;83;21020;-76
2022/05/31 05:17:25;;;;;;;10.35;9.28;;;;;;;17.36;90.25;99894.22;1660806;84;21970;-77
2022/05/31 05:19:51;;;;;;;9.60;8.40;;;;;;;17.37;90.18;99897.21;1684756;85;21103;-77
2022/05/31 05:22:18;;;;;;;8.18;7.55;;;;;;;17.38;90.01;99899.38;1657364;84;20972;-74
2022/05/31 05:24:45;;;;;;;8.43;7.72;;;;;;;17.40;89.99;99901.27;1657523;84;21607;-77
2022/05/31 05:27:24;;;;;;;9.25;8.28;;;;;;;17.37;89.79;99909.45;1696156;83;21223;-76
2022/05/31 05:32:59;;;;;;;8.80;8.00;;;;;;;17.27;89.81;99913.63;1686714;84;21122;-76
2022/05/31 05:35:30;;;;;;;8.38;7.67;;;;;;;17.30;89.82;99916.34;1672731;85;21014;-75
2022/05/31 05:38:10;;;;;;;7.92;7.22;;;;;;;17.33;89.85;99929.34;1645230;87;21107;-74
2022/05/31 05:40:39;;;;;;;9.90;9.10;;;;;;;17.33;89.99;99931.52;1669190;85;21102;-76
2022/05/31 05:43:09;;;;;;;9.05;8.25;;;;;;;17.31;89.95;99932.34;1672044;84;21132;-78
2022/05/31 05:45:39;;;;;;;10.45;9.30;;;;;;;17.35;90.19;99929.88;1660469;85;21053;-76
2022/05/31 05:48:07;;;;;;;9.95;8.15;;;;;;;17.37;90.35;99930.39;1657019;86;20949;-74
2022/05/31 05:50:35;;;;;;;10.35;9.23;;;;;;;17.41;90.44;99934.95;1656801;86;21064;-74
2022/05/31 05:53:10;;;;;;;9.93;9.03;;;;;;;17.43;90.47;99935.48;1663320;85;21033;-76
2022/05/31 05:55:42;;;;;;;10.98;9.90;;;;;;;17.49;90.47;99942.23;1686331;85;21405;-74
2022/05/31 05:58:13;;;;;;;11.30;9.73;;;;;;;17.47;90.55;99943.88;1633259;86;21125;-75
2022/05/31 06:00:58;;;;;;;10.20;9.35;;;;;;;17.50;90.74;99950.11;1657861;85;20968;-77
2022/05/31 06:03:33;;;;;;;15.50;12.35;;;;;;;17.50;90.79;99946.03;1661647;86;21592;-76
2022/05/31 06:06:02;;;;;;;18.27;12.82;;;;;;;17.47;91.20;99945.78;1634014;86;21031;-74
2022/05/31 06:08:35;;;;;;;14.20;11.53;;;;;;;17.31;92.24;99941.86;1661481;86;22130;-75
2022/05/31 06:11:24;;;;;;;12.60;11.08;;;;;;;17.29;92.80;99927.77;1644843;86;21649;-73
2022/05/31 06:14:00;;;;;;;9.80;9.00;;;;;;;17.32;92.90;99921.73;1672483;84;21602;-76
2022/05/31 06:16:31;;;;;;;10.25;9.25;;;;;;;17.31;94.02;99912.53;1659252;85;21548;-76
2022/05/31 06:19:03;;;;;;;15.10;11.83;;;;;;;17.20;94.71;99919.98;1691695;84;21527;-75
2022/05/31 06:21:29;;;;;;;12.88;10.00;;;;;;;17.19;94.84;99924.33;1689171;83;21144;-76
2022/05/31 06:23:58;;;;;;;11.95;10.75;;;;;;;17.24;95.13;99925.09;1709212;83;20966;-74
2022/05/31 06:26:25;;;;;;;14.33;10.43;;;;;;;17.30;94.92;99925.86;1640491;85;20995;-76
2022/05/31 06:28:53;;;;;;;11.73;10.60;;;;;;;17.33;95.35;99935.59;1657240;84;21024;-74
2022/05/31 06:31:20;;;;;;;11.08;9.95;;;;;;;17.38;94.85;99935.55;1687694;83;21037;-76
2022/05/31 06:33:47;;;;;;;11.60;10.50;;;;;;;17.42;94.54;99943.93;1687398;83;21438;-78
2022/05/31 06:36:15;;;;;;;12.82;10.98;;;;;;;17.48;93.58;99949.58;1689257;83;20965;-76
2022/05/31 06:38:42;;;;;;;11.12;10.03;;;;;;;17.52;93.19;99956.60;1689264;84;21024;-75
2022/05/31 06:41:09;;;;;;;10.00;9.10;;;;;;;17.58;92.45;99969.05;1685420;83;21012;-73
2022/05/31 06:43:51;;;;;;;13.15;10.75;;;;;;;17.61;92.01;99967.95;1689880;84;21540;-75
2022/05/31 06:46:36;;;;;;;11.85;10.78;;;;;;;17.65;91.86;99962.19;1689832;84;21530;-78
2022/05/31 06:49:22;;;;;;;13.45;12.03;;;;;;;17.68;91.48;99969.79;1689811;84;20977;-74
2022/05/31 06:57:40;;;;;;;10.75;9.80;;;;;;;17.64;91.22;99972.83;1687618;83;21300;-73
2022/05/31 07:00:16;;;;;;;10.75;9.63;;;;;;;17.63;91.16;99981.27;1695443;83;21157;-76
2022/05/31 07:02:42;;;;;;;11.83;10.25;;;;;;;17.65;90.99;99990.75;1665635;84;25485;-73
2022/05/31 07:05:10;;;;;;;12.95;10.55;;;;;;;17.69;90.90;99996.45;1694455;84;21042;-75
2022/05/31 07:07:39;;;;;;;12.03;10.78;;;;;;;17.69;90.53;99995.91;1694463;83;21071;-75
2022/05/31 07:10:10;;;;;;;11.78;10.53;;;;;;;17.72;90.39;100007.55;1638105;84;21039;-73
2022/05/31 07:12:43;;;;;;;;;;;;;;;17.73;89.77;100002.38;1637805;84;20964;-75
2022/05/31 07:15:17;;;;;;;12.63;9.43;;;;;;;17.72;89.67;100009.46;1693705;83;20397;-81
2022/05/31 07:17:52;;;;;;;10.82;9.80;;;;;;;17.68;89.51;100016.58;1716981;83;21032;-79
2022/05/31 07:20:18;;;;;;;12.30;10.80;;;;;;;17.68;89.77;100016.03;1721975;83;21004;-80
2022/05/31 07:22:45;;;;;;;10.13;8.13;;;;;;;17.71;89.44;100017.35;1723249;83;21039;-77
2022/05/31 07:25:16;;;;;;;9.78;8.80;;;;;;;17.74;89.11;100017.61;1667056;84;21390;-75
2022/05/31 07:27:46;;;;;;;10.13;8.15;;;;;;;17.80;88.82;100020.52;1667560;84;20972;-76
2022/05/31 07:30:13;;;;;;;11.45;9.53;;;;;;;17.85;87.69;100019.64;1658013;85;21497;-77
2022/05/31 07:32:42;;;;;;;8.73;7.92;;;;;;;17.79;86.55;100020.83;1646379;84;21028;-79
2022/05/31 07:35:09;;;;;;;7.87;7.28;;;;;;;17.78;86.33;100019.20;1674995;85;21598;-72
2022/05/31 07:37:37;;;;;;;6.92;6.33;;;;;;;17.76;85.20;100029.00;1676604;84;22009;-72
2022/05/31 07:40:06;;;;;;;8.23;7.42;;;;;;;17.78;84.98;100021.92;1676670;85;20968;-73
2022/05/31 07:42:34;;;;;;;9.70;7.67;;;;;;;17.76;84.66;100026.83;1695961;84;21028;-74
2022/05/31 07:45:04;;;;;;;8.55;6.72;;;;;;;17.68;84.14;100031.55;1668409;83;21071;-73
2022/05/31 07:47:31;;;;;;;7.72;6.65;;;;;;;17.63;84.29;100026.97;1686408;84;21583;-74
2022/05/31 07:49:58;;;;;;;6.72;6.03;;;;;;;17.63;83.64;100032.95;1703099;83;21100;-74
2022/05/31 07:52:45;;;;;;;7.60;6.83;;;;;;;17.60;82.54;100037.05;1672376;83;21067;-75
2022/05/31 07:55:30;;;;;;;7.75;7.05;;;;;;;17.56;81.96;100041.95;1689273;83;21055;-77
2022/05/31 08:01:03;;;;;;;7.97;7.28;;;;;;;17.42;82.13;100048.08;1643342;83;21050;-76
2022/05/31 08:03:32;;;;;;;7.55;6.55;;;;;;;17.42;82.28;100055.42;1710777;83;21913;-74
2022/05/31 08:06:06;;;;;;;7.65;7.05;;;;;;;17.46;82.56;100065.20;1651469;84;21092;-76
2022/05/31 08:08:35;;;;;;;8.78;6.60;;;;;;;17.53;82.60;100072.46;1699123;83;22265;-75
2022/05/31 08:11:11;;;;;;;7.47;6.85;;;;;;;17.54;82.28;100072.73;1690124;84;20926;-74
2022/05/31 08:13:38;;;;;;;7.45;6.75;;;;;;;17.54;82.57;100077.63;1684703;83;21064;-74
2022/05/31 08:16:06;;;;;;;7.03;5.83;;;;;;;17.53;82.61;100053.42;1660415;85;21158;-75
2022/05/31 08:18:34;;;;;;;8.33;5.75;;;;;;;17.56;82.77;100050.93;1684605;85;21105;-76
2022/05/31 08:21:06;;;;;;;9.23;6.65;;;;;;;17.56;82.10;100048.76;1657408;84;21119;-74
2022/05/31 08:23:34;;;;;;;8.15;7.30;;;;;;;17.55;81.34;100052.05;1648722;86;21074;-75
2022/05/31 08:26:01;;;;;;;7.75;7.05;;;;;;;17.58;80.92;100062.89;1676165;84;21132;-75
2022/05/31 08:28:28;;;;;;;7.42;6.83;;;;;;;17.61;79.56;100062.34;1680305;85;21946;-76
2022/05/31 08:31:04;;;;;;;12.98;6.72;;;;;;;17.62;79.31;100060.70;1680446;85;21079;-75
2022/05/31 08:33:30;;;;;;;7.80;5.30;;;;;;;17.66;79.28;100065.02;1666010;83;21044;-74
2022/05/31 08:35:57;;;;;;;6.72;6.12;;;;;;;17.73;79.17;100068.22;1693242;83;21111;-72
2022/05/31 08:38:23;;;;;;;7.08;6.05;;;;;;;17.77;78.15;100056.47;1680410;84;21089;-74
2022/05/31 08:41:17;;;;;;;6.50;6.00;;;;;;;17.77;77.77;100064.64;1654542;85;21701;-74
2022/05/31 08:43:51;;;;;;;6.95;6.35;;;;;;;17.65;76.81;100062.06;1629647;86;21516;-75
2022/05/31 08:46:46;;;;;;;6.15;5.75;;;;;;;17.64;77.70;100061.79;1638509;86;21514;-78
2022/05/31 08:52:34;;;;;;;6.50;6.00;;;;;;;17.60;78.02;100077.06;1633621;86;21061;-75
2022/05/31 08:57:58;;;;;;;7.10;6.08;;;;;;;17.59;78.30;100090.39;1654593;86;21057;-75
2022/05/31 09:00:27;;;;;;;;;;;;;;;17.54;78.29;100087.14;1640035;86;21571;-79
2022/05/31 09:03:00;;;;;;;6.37;5.83;;;;;;;17.49;78.12;100099.42;1629883;87;20142;-76
2022/05/31 09:05:32;;;;;;;5.53;5.03;;;;;;;17.44;78.43;100107.63;1629205;87;20976;-76
2022/05/31 09:08:09;;;;;;;;;;;;;;;17.37;78.61;100120.72;1653480;86;21167;-75
2022/05/31 09:10:43;;;;;;;5.33;4.83;;;;;;;17.32;78.80;100125.66;1625363;85;20209;-72
2022/05/31 09:13:21;;;;;;;5.30;4.90;;;;;;;17.26;78.44;100141.77;1618751;88;21190;-71
2022/05/31 09:15:55;;;;;;;5.58;5.17;;;;;;;17.20;77.97;100149.68;1602927;89;21123;-72
2022/05/31 09:18:48;;;;;;;4.87;4.47;;;;;;;17.12;77.94;100136.66;1620539;87;21057;-74
2022/05/31 09:21:38;;;;;;;5.10;4.70;;;;;;;17.07;78.32;100150.31;1616377;86;21226;-74
2022/05/31 09:24:09;;;;;;;5.67;5.15;;;;;;;17.03;78.64;100140.26;1642755;86;21056;-74
2022/05/31 09:27:09;;;;;;;6.33;5.72;;;;;;;16.94;78.36;100129.99;1658129;86;20984;-79
2022/05/31 09:30:01;;;;;;;6.25;5.72;;;;;;;16.88;78.29;100120.23;1646504;86;22399;-73
2022/05/31 09:32:49;;;;;;;5.30;4.83;;;;;;;16.83;78.15;100120.30;1661299;86;21494;-75
2022/05/31 09:35:24;;;;;;;5.90;5.35;;;;;;;16.73;78.61;100125.78;1630760;87;21233;-75
2022/05/31 09:38:26;;;;;;;6.65;5.75;;;;;;;16.62;78.57;100118.77;1623427;86;21014;-77
2022/05/31 09:41:17;;;;;;;7.55;6.75;;;;;;;16.42;80.18;100103.34;1609316;89;21092;-75
2022/05/31 09:44:02;;;;;;;8.55;6.03;;;;;;;16.24;82.15;100105.32;1617453;87;21496;-73
2022/05/31 09:46:52;;;;;;;7.37;6.30;;;;;;;16.14;83.30;100097.20;1614401;87;21028;-74
2022/05/31 09:49:37;;;;;;;6.92;6.33;;;;;;;16.04;85.27;100112.97;1633441;86;21114;-75
2022/05/31 09:52:08;;;;;;;5.47;5.08;;;;;;;15.97;86.22;100124.64;1634548;86;20960;-75
2022/05/31 09:58:36;;;;;;;7.33;5.40;;;;;;;15.87;86.98;100132.02;1569433;89;21049;-74
2022/05/31 10:01:13;;;;;;;6.50;4.97;;;;;;;15.83;88.49;100133.08;1548768;87;21099;-73
2022/05/31 10:03:54;;;;;;;5.45;5.05;;;;;;;15.75;89.79;100146.38;1628986;87;21566;-73
2022/05/31 10:06:26;;;;;;;5.50;5.00;;;;;;;15.62;90.62;100151.28;1656653;86;20986;-75
2022/05/31 10:08:54;;;;;;;6.03;5.33;;;;;;;15.51;91.61;100136.63;1652568;85;21512;-77
2022/05/31 10:11:44;;;;;;;5.87;4.62;;;;;;;15.43;92.04;100141.22;1644613;85;21105;-76
2022/05/31 10:14:27;;;;;;;4.75;4.35;;;;;;;15.36;92.23;100148.25;1641988;87;21555;-74
2022/05/31 10:16:55;;;;;;;4.87;4.47;;;;;;;15.27;92.60;100154.75;1633721;87;21923;-79
2022/05/31 10:19:29;;;;;;;6.28;5.60;;;;;;;15.22;93.59;100152.03;1648395;85;21136;-79
2022/05/31 10:21:57;;;;;;;6.47;5.87;;;;;;;15.13;93.99;100146.88;1643428;85;21503;-83
2022/05/31 10:24:29;;;;;;;5.70;5.15;;;;;;;14.94;94.92;100135.45;1648273;85;21015;-83
2022/05/31 10:27:23;;;;;;;6.70;5.25;;;;;;;14.86;95.93;100144.11;1620831;88;20995;-75
2022/05/31 10:30:09;;;;;;;9.05;4.85;;;;;;;14.76;96.83;100126.75;1619755;88;20994;-84
2022/05/31 10:33:13;;;;;;;6.97;5.45;;;;;;;14.71;97.23;100127.27;1628231;87;20979;-72
2022/05/31 10:35:43;;;;;;;6.83;4.67;;;;;;;14.72;98.28;100111.31;1617646;87;21081;-79
2022/05/31 10:38:27;;;;;;;6.03;4.90;;;;;;;14.70;97.77;100110.21;1650842;85;21344;-77
2022/05/31 10:41:03;;;;;;;5.90;4.53;;;;;;;14.73;97.90;100113.73;1668111;85;21555;-80
2022/05/31 10:43:45;;;;;;;5.03;4.62;;;;;;;14.79;98.15;100107.79;1643194;85;21314;-80
2022/05/31 10:46:28;;;;;;;5.42;4.15;;;;;;;14.81;97.93;100110.52;1648336;85;21011;-87
2022/05/31 10:48:57;;;;;;;4.10;3.77;;;;;;;14.82;97.83;100111.30;1626954;87;21036;-84
2022/05/31 10:51:34;;;;;;;5.03;4.62;;;;;;;14.84;98.52;100113.22;1643747;86;21058;-81
2022/05/31 10:54:34;;;;;;;6.12;5.53;;;;;;;14.84;98.32;100118.64;1637375;86;21082;-82
2022/05/31 10:57:09;;;;;;;6.30;4.80;;;;;;;14.82;98.84;100114.02;1667845;84;21279;-83
2022/05/31 10:59:55;;;;;;;7.65;5.33;;;;;;;14.85;99.44;100127.04;1676056;84;21127;-86
2022/05/31 11:02:49;;;;;;;7.55;5.50;;;;;;;14.90;99.35;100133.02;1658419;84;21567;-77
2022/05/31 11:05:19;;;;;;;5.08;4.65;;;;;;;14.97;99.43;100153.33;1656730;84;21063;-74
2022/05/31 11:11:51;;;;;;;6.35;5.08;;;;;;;15.12;100.00;100142.53;1692527;84;22252;-77
2022/05/31 11:14:23;;;;;;;9.05;6.05;;;;;;;15.20;100.00;100125.73;1678633;84;21012;-77
2022/05/31 11:17:31;;;;;;;6.27;5.53;;;;;;;15.30;100.00;100119.50;1706066;84;21065;-76
2022/05/31 11:20:14;;;;;;;5.55;5.10;;;;;;;15.38;100.00;100116.28;1601294;84;21058;-81
2022/05/31 11:23:10;;;;;;;10.68;5.03;;;;;;;15.50;100.00;100134.97;1706126;84;21050;-80
2022/05/31 11:26:00;;;;;;;6.80;5.37;;;;;;;15.66;100.00;100131.20;1706039;84;21377;-80
2022/05/31 11:28:44;;;;;;;5.55;5.05;;;;;;;15.82;100.00;100129.30;1675477;84;21039;-77
2022/05/31 11:31:45;;;;;;;9.20;5.08;;;;;;;15.99;100.00;100125.73;1673035;85;21522;-81
2022/05/31 11:34:36;;;;;;;4.90;4.30;;;;;;;16.09;100.00;100133.86;1673828;85;21095;-78
2022/05/31 11:37:17;;;;;;;5.20;4.40;;;;;;;16.17;98.86;100128.39;1674267;85;21076;-80
2022/05/31 11:40:16;;;;;;;4.90;3.83;;;;;;;16.21;96.56;100137.06;1677863;85;21210;-84
2022/05/31 11:42:58;;;;;;;6.17;4.95;;;;;;;16.19;91.43;100139.26;1666331;85;21034;-73
2022/05/31 11:45:37;;;;;;;6.17;4.55;;;;;;;16.13;93.40;100128.95;1708290;83;21067;-94
2022/05/31 11:48:27;;;;;;;4.08;3.77;;;;;;;16.14;92.58;100134.66;1670856;84;21599;-94
2022/05/31 11:51:23;;;;;;;3.98;3.65;;;;;;;16.13;91.33;100138.99;1721064;82;21155;-91
2022/05/31 11:54:41;;;;;;;4.45;3.70;;;;;;;16.03;90.05;100141.19;1710298;83;21860;-76
2022/05/31 11:57:20;;;;;;;4.12;3.58;;;;;;;16.05;91.40;100149.06;1710542;83;21571;-81
2022/05/31 12:00:05;;;;;;;4.70;4.30;;;;;;;16.13;91.91;100145.23;1701963;83;21116;-80
2022/05/31 12:02:49;;;;;;;7.55;4.47;;;;;;;16.17;91.45;100127.85;1696191;84;21016;-82
2022/05/31 12:05:29;;;;;;;5.08;4.58;;;;;;;16.20;92.65;100126.50;1696232;84;21115;-82
2022/05/31 12:08:06;;;;;;;4.92;4.53;;;;;;;16.26;93.71;100127.55;1703423;84;21889;-71
2022/05/31 12:10:37;;;;;;;5.17;3.62;;;;;;;16.31;92.80;100124.82;1686140;84;21035;-71
2022/05/31 12:13:07;;;;;;;4.30;3.90;;;;;;;16.45;92.40;100140.00;1682161;84;21084;-70
2022/05/31 12:15:36;;;;;;;4.45;4.15;;;;;;;16.59;90.85;100128.02;1676063;84;21028;-72
2022/05/31 12:18:26;;;;;;;4.25;3.87;;;;;;;16.71;89.34;100135.28;1662863;85;36165;-77
2022/05/31 12:20:59;;;;;;;3.62;3.33;;;;;;;16.78;87.09;100134.45;1677535;84;21289;-80
2022/05/31 12:24:01;;;;;;;3.98;3.47;;;;;;;16.88;87.39;100135.18;1681961;84;21526;-75
2022/05/31 12:26:53;;;;;;;3.30;2.87;;;;;;;16.99;83.43;100140.02;1662238;85;20992;-72
2022/05/31 12:29:47;;;;;;;3.25;2.62;;;;;;;17.20;84.09;100138.80;1639726;85;21083;-74
2022/05/31 12:32:29;;;;;;;3.75;3.33;;;;;;;17.28;82.68;100142.81;1651020;85;21135;-76